Terminal Aerodrome Forecast
Issued by NWS Twin Cities, MN

Home | Current Version | Previous Version | Text Only | Print | Product List | Glossary On
Versions: 1 2 3 4 5 6 7 8 9 10 11 12 13 14 15 16 17 18 19
421
FTUS43 KMPX 221358 AAA
TAFEAU
TAF AMD
KEAU 221358Z 2214/2312 04012G18KT 6SM -SNRA BR BKN018 OVC035
     FM221600 04012G20KT 2SM -SNRA BR OVC012
     FM221700 04016G22KT 3/4SM -SNRA BLSN OVC008
     FM221900 04016G24KT 1/2SM SN OVC008
      TEMPO 2219/2223 1/4SM +SN BLSN VV002
     FM230000 03014G23KT 1SM -SN OVC008
     FM230100 03014G23KT 2SM -SN OVC010
     FM230400 02012KT 1 1/2SM -SN OVC010
     FM230700 36011KT P6SM OVC010
     FM231100 34010KT P6SM BKN050=

USA.gov is the U.S. government's official web portal to all federal, state and local government web resources and services.